createdAt,value
2022-09-28T00:01:23.840Z,0.82
2022-09-28T00:03:53.156Z,0.60
2022-09-28T00:06:24.753Z,0.80
2022-09-28T00:08:51.901Z,0.60
2022-09-28T00:11:23.422Z,0.90
2022-09-28T00:13:52.363Z,0.75
2022-09-28T00:16:21.488Z,0.90
2022-09-28T00:18:51.352Z,0.75
2022-09-28T00:21:24.647Z,0.80
2022-09-28T00:24:11.910Z,4.30
2022-09-28T00:26:42.775Z,3.40
2022-09-28T00:29:18.918Z,10.52
2022-09-28T00:31:52.484Z,4.20
2022-09-28T00:34:22.641Z,6.73
2022-09-28T00:36:49.444Z,3.63
2022-09-28T00:39:19.228Z,9.25
2022-09-28T00:41:48.559Z,7.38
2022-09-28T00:44:27.213Z,4.00
2022-09-28T00:47:02.074Z,3.40
2022-09-28T00:49:37.136Z,2.40
2022-09-28T00:52:06.415Z,1.73
2022-09-28T00:54:36.489Z,0.80
2022-09-28T00:57:04.073Z,0.85
2022-09-28T00:59:33.553Z,0.73
2022-09-28T01:02:04.512Z,1.08
2022-09-28T01:04:31.297Z,0.95
2022-09-28T01:06:59.173Z,0.60
2022-09-28T01:09:29.722Z,0.70
2022-09-28T01:11:58.638Z,0.60
2022-09-28T01:14:25.838Z,0.70
2022-09-28T01:17:14.872Z,0.70
2022-09-28T01:20:14.416Z,0.70
2022-09-28T01:22:43.651Z,0.65
2022-09-28T01:25:25.097Z,0.40
2022-09-28T01:28:04.371Z,0.75
2022-09-28T01:30:46.234Z,0.60
2022-09-28T01:33:22.525Z,0.70
2022-09-28T01:36:27.921Z,0.60
2022-09-28T01:39:18.017Z,0.70
2022-09-28T01:41:48.548Z,0.60
2022-09-28T01:44:18.856Z,0.60
2022-09-28T01:46:49.955Z,0.50
2022-09-28T01:49:21.617Z,0.60
2022-09-28T01:51:58.998Z,0.50
2022-09-28T01:54:37.888Z,0.40
2022-09-28T01:57:26.570Z,0.50
2022-09-28T02:00:04.030Z,0.60
2022-09-28T02:02:45.471Z,0.45
2022-09-28T02:05:25.280Z,0.60
2022-09-28T02:08:07.298Z,0.40
2022-09-28T02:10:41.493Z,0.50
2022-09-28T02:13:20.571Z,0.40
2022-09-28T02:16:14.441Z,0.50
2022-09-28T02:18:42.081Z,0.57
2022-09-28T02:21:20.238Z,0.45
2022-09-28T02:24:01.054Z,0.30
2022-09-28T02:26:32.586Z,0.43
2022-09-28T02:28:59.428Z,0.50
2022-09-28T02:31:27.139Z,0.53
2022-09-28T02:33:56.899Z,0.50
2022-09-28T02:36:28.622Z,0.60
2022-09-28T02:39:02.259Z,0.40
2022-09-28T02:41:53.834Z,0.47
2022-09-28T02:44:35.560Z,0.40
2022-09-28T02:47:23.140Z,0.40
2022-09-28T02:50:20.694Z,0.50
2022-09-28T02:53:08.065Z,0.50
2022-09-28T02:55:55.618Z,0.40
2022-09-28T02:58:37.287Z,0.50
2022-09-28T03:01:24.171Z,0.50
2022-09-28T03:03:56.790Z,0.40
2022-09-28T03:06:37.521Z,0.40
2022-09-28T03:09:13.076Z,0.50
2022-09-28T03:12:06.654Z,0.60
2022-09-28T03:14:33.428Z,0.43
2022-09-28T03:17:02.963Z,0.50
2022-09-28T03:19:33.583Z,0.50
2022-09-28T03:22:00.729Z,0.40
2022-09-28T03:24:29.474Z,0.47
2022-09-28T03:26:58.248Z,0.32
2022-09-28T03:29:27.179Z,0.40
2022-09-28T03:31:55.980Z,0.40
2022-09-28T03:34:24.902Z,0.30
2022-09-28T03:36:53.878Z,0.30
2022-09-28T03:39:20.359Z,0.40
2022-09-28T03:41:46.875Z,0.30
2022-09-28T03:44:13.427Z,0.30
2022-09-28T03:46:42.508Z,0.30
2022-09-28T03:49:09.814Z,0.40
2022-09-28T03:51:36.579Z,0.30
2022-09-28T03:54:03.625Z,0.30
2022-09-28T03:56:30.279Z,0.30
2022-09-28T03:58:59.044Z,0.30
2022-09-28T04:01:25.761Z,0.57
2022-09-28T04:03:56.040Z,0.30
2022-09-28T04:06:26.241Z,0.40
2022-09-28T04:08:53.115Z,0.40
2022-09-28T04:11:21.969Z,0.30
2022-09-28T04:13:50.169Z,0.40
2022-09-28T04:16:17.924Z,0.45
2022-09-28T04:18:44.589Z,0.50
2022-09-28T04:21:13.809Z,0.30
2022-09-28T04:23:40.564Z,0.40
2022-09-28T04:26:18.719Z,0.30
2022-09-28T04:29:06.817Z,0.40
2022-09-28T04:31:50.898Z,0.55
2022-09-28T04:34:20.437Z,0.30
2022-09-28T04:36:50.156Z,0.40
2022-09-28T04:39:18.263Z,0.30
2022-09-28T04:41:50.557Z,0.43
2022-09-28T04:44:17.169Z,0.30
2022-09-28T04:46:43.760Z,0.40
2022-09-28T04:49:13.114Z,0.30
2022-09-28T04:51:39.671Z,0.30
2022-09-28T04:54:06.181Z,0.40
2022-09-28T04:56:32.763Z,0.50
2022-09-28T04:58:59.316Z,0.40
2022-09-28T05:01:28.296Z,0.30
2022-09-28T05:03:57.947Z,0.20
2022-09-28T05:06:28.596Z,0.30
2022-09-28T05:08:57.382Z,0.30
2022-09-28T05:11:24.143Z,0.30
2022-09-28T05:13:50.737Z,0.20
2022-09-28T05:16:22.342Z,0.20
2022-09-28T05:18:48.926Z,0.50
2022-09-28T05:21:15.992Z,0.50
2022-09-28T05:23:47.400Z,0.30
2022-09-28T05:26:14.415Z,0.32
2022-09-28T05:28:40.968Z,0.30
2022-09-28T05:31:12.773Z,0.28
2022-09-28T05:33:41.727Z,0.30
2022-09-28T05:36:11.323Z,0.68
2022-09-28T05:38:38.025Z,0.30
2022-09-28T05:41:09.329Z,0.30
2022-09-28T05:43:40.707Z,0.35
2022-09-28T05:46:12.492Z,0.30
2022-09-28T05:48:39.571Z,0.30
2022-09-28T05:51:06.355Z,0.30
2022-09-28T05:53:37.539Z,0.30
2022-09-28T05:56:06.579Z,0.30
2022-09-28T05:58:36.621Z,0.20
2022-09-28T06:01:03.251Z,0.30
2022-09-28T06:03:29.864Z,0.30
2022-09-28T06:05:56.452Z,0.30
2022-09-28T06:08:23.363Z,0.20
2022-09-28T06:10:52.156Z,0.30
2022-09-28T06:13:21.089Z,0.30
2022-09-28T06:15:49.967Z,0.40
2022-09-28T06:18:18.996Z,0.40
2022-09-28T06:20:45.615Z,0.40
2022-09-28T06:23:14.867Z,0.50
2022-09-28T06:25:41.919Z,0.40
2022-09-28T06:28:14.255Z,0.30
2022-09-28T06:30:44.049Z,0.30
2022-09-28T06:33:13.737Z,0.20
2022-09-28T06:35:42.952Z,0.30
2022-09-28T06:38:11.941Z,0.30
2022-09-28T06:40:41.081Z,0.30
2022-09-28T06:43:15.097Z,0.30
2022-09-28T06:45:50.728Z,0.40
2022-09-28T06:48:17.570Z,0.40
2022-09-28T06:50:47.548Z,0.50
2022-09-28T06:53:17.671Z,0.50
2022-09-28T06:55:48.242Z,0.70
2022-09-28T06:58:22.311Z,1.08
2022-09-28T07:00:51.531Z,0.57
2022-09-28T07:03:21.641Z,0.40
2022-09-28T07:05:56.322Z,0.50
2022-09-28T07:08:25.998Z,0.40
2022-09-28T07:10:57.198Z,0.40
2022-09-28T07:16:15.399Z,0.50
2022-09-28T07:18:46.486Z,0.60
2022-09-28T07:21:27.847Z,0.50
2022-09-28T07:23:55.158Z,1.70
2022-09-28T07:26:25.831Z,1.40
2022-09-28T07:28:52.669Z,0.50
2022-09-28T07:31:19.284Z,0.50
2022-09-28T07:33:49.778Z,0.30
2022-09-28T07:36:20.983Z,0.30
2022-09-28T07:38:49.859Z,1.48
2022-09-28T07:41:22.530Z,0.73
2022-09-28T07:43:51.812Z,0.70
2022-09-28T07:46:18.378Z,1.90
2022-09-28T07:48:47.968Z,0.80
2022-09-28T07:51:19.770Z,0.50
2022-09-28T07:53:48.594Z,0.30
2022-09-28T07:56:17.480Z,1.33
2022-09-28T07:58:44.161Z,1.50
2022-09-28T08:01:11.977Z,1.40
2022-09-28T08:03:39.385Z,1.10
2022-09-28T08:06:09.860Z,0.68
2022-09-28T08:08:37.154Z,0.50
2022-09-28T08:11:05.849Z,1.00
2022-09-28T08:13:34.959Z,1.38
2022-09-28T08:16:02.500Z,1.55
2022-09-28T08:18:29.396Z,0.90
2022-09-28T08:21:14.528Z,0.90
2022-09-28T08:23:45.668Z,0.40
2022-09-28T08:26:15.585Z,0.50
2022-09-28T08:28:43.482Z,0.50
2022-09-28T08:31:13.130Z,0.32
2022-09-28T08:33:41.668Z,0.60
2022-09-28T08:36:10.180Z,0.60
2022-09-28T08:38:36.748Z,0.70
2022-09-28T08:41:27.477Z,0.50
2022-09-28T08:44:14.382Z,0.80
2022-09-28T08:46:45.207Z,0.70
2022-09-28T08:49:26.171Z,0.50
2022-09-28T08:52:01.159Z,0.60
2022-09-28T08:54:36.709Z,0.60
2022-09-28T08:57:19.571Z,0.43
2022-09-28T08:59:53.024Z,0.30
2022-09-28T09:02:29.512Z,0.30
2022-09-28T09:04:57.778Z,0.30
2022-09-28T09:07:30.170Z,0.40
2022-09-28T09:10:08.914Z,0.52
2022-09-28T09:12:47.596Z,0.38
2022-09-28T09:15:40.755Z,0.20
2022-09-28T09:18:26.310Z,0.40
2022-09-28T09:20:58.575Z,0.20
2022-09-28T09:23:28.494Z,0.40
2022-09-28T09:26:03.664Z,0.50
2022-09-28T09:28:39.405Z,0.50
2022-09-28T09:31:24.149Z,0.73
2022-09-28T09:33:59.520Z,0.77
2022-09-28T09:36:29.387Z,0.40
2022-09-28T09:39:15.265Z,0.45
2022-09-28T09:42:01.868Z,0.30
2022-09-28T09:44:31.294Z,0.50
2022-09-28T09:47:18.842Z,0.35
2022-09-28T09:49:47.630Z,0.90
2022-09-28T09:52:28.451Z,0.65
2022-09-28T09:55:29.859Z,0.30
2022-09-28T09:58:02.760Z,0.28
2022-09-28T10:00:29.929Z,0.30
2022-09-28T10:03:00.251Z,0.30
2022-09-28T10:05:33.289Z,0.80
2022-09-28T10:08:08.930Z,0.20
2022-09-28T10:10:49.623Z,0.30
2022-09-28T10:13:18.569Z,0.40
2022-09-28T10:15:48.072Z,0.35
2022-09-28T10:18:19.109Z,0.40
2022-09-28T10:20:48.954Z,0.40
2022-09-28T10:23:29.531Z,0.38
2022-09-28T10:26:15.188Z,0.30
2022-09-28T10:28:59.027Z,0.40
2022-09-28T10:31:50.054Z,0.40
2022-09-28T10:34:28.003Z,0.60
2022-09-28T10:37:05.482Z,0.30
2022-09-28T10:39:32.003Z,0.30
2022-09-28T10:42:03.620Z,0.30
2022-09-28T10:44:34.294Z,0.30
2022-09-28T10:47:08.022Z,0.30
2022-09-28T10:49:46.997Z,2.67
2022-09-28T10:52:32.159Z,1.77
2022-09-28T10:54:59.276Z,1.23
2022-09-28T10:57:36.867Z,1.40
2022-09-28T11:00:08.206Z,1.20
2022-09-28T11:02:40.197Z,0.80
2022-09-28T11:05:07.932Z,0.60
2022-09-28T11:07:46.088Z,0.70
2022-09-28T11:10:27.536Z,0.40
2022-09-28T11:13:00.204Z,0.60
2022-09-28T11:15:33.488Z,0.60
2022-09-28T11:18:38.891Z,0.77
2022-09-28T11:21:16.751Z,0.30
2022-09-28T11:24:21.533Z,0.40
2022-09-28T11:26:52.947Z,0.50
2022-09-28T11:29:37.190Z,0.40
2022-09-28T11:32:07.074Z,0.30
2022-09-28T11:34:58.542Z,0.60
2022-09-28T11:37:57.206Z,0.82
2022-09-28T11:40:39.160Z,0.90
2022-09-28T11:43:24.162Z,0.50
2022-09-28T11:46:16.329Z,0.40
2022-09-28T11:48:54.091Z,0.30
2022-09-28T11:51:32.986Z,0.30
2022-09-28T11:54:14.330Z,0.40
2022-09-28T11:56:48.635Z,0.30
2022-09-28T11:59:27.693Z,0.40
2022-09-28T12:02:16.968Z,0.30
2022-09-28T12:05:02.999Z,0.38
2022-09-28T12:07:46.159Z,0.30
2022-09-28T12:10:34.518Z,0.30
2022-09-28T12:13:10.243Z,0.30
2022-09-28T12:16:13.292Z,0.68
2022-09-28T12:18:46.835Z,0.40
2022-09-28T12:21:33.002Z,0.33
2022-09-28T12:24:13.349Z,0.35
2022-09-28T12:27:12.717Z,0.40
2022-09-28T12:29:52.817Z,0.30
2022-09-28T12:32:31.440Z,0.73
2022-09-28T12:35:02.280Z,0.30
2022-09-28T12:37:45.253Z,0.30
2022-09-28T12:40:35.295Z,0.43
2022-09-28T12:43:14.140Z,0.40
2022-09-28T12:46:11.569Z,0.50
2022-09-28T12:51:54.707Z,0.30
2022-09-28T12:54:42.465Z,0.30
2022-09-28T12:57:31.581Z,0.40
2022-09-28T13:00:12.094Z,0.30
2022-09-28T13:03:15.945Z,0.30
2022-09-28T13:05:48.440Z,0.20
2022-09-28T13:08:36.708Z,0.30
2022-09-28T13:11:08.592Z,0.30
2022-09-28T13:13:44.917Z,0.30
2022-09-28T13:16:21.600Z,0.30
2022-09-28T13:19:17.292Z,0.30
2022-09-28T13:21:56.488Z,0.30
2022-09-28T13:24:32.619Z,0.30
2022-09-28T13:27:05.632Z,0.20
2022-09-28T13:29:35.115Z,0.30
2022-09-28T13:32:03.456Z,0.38
2022-09-28T13:34:33.551Z,0.95
2022-09-28T13:37:18.126Z,0.40
2022-09-28T13:39:44.594Z,2.28
2022-09-28T13:42:23.430Z,1.13
2022-09-28T13:44:49.919Z,1.20
2022-09-28T13:47:53.095Z,0.50
2022-09-28T13:50:44.396Z,0.30
2022-09-28T13:53:30.084Z,0.63
2022-09-28T13:56:17.557Z,0.33
2022-09-28T13:58:49.963Z,0.45
2022-09-28T14:01:32.428Z,0.80
2022-09-28T14:04:20.746Z,0.40
2022-09-28T14:06:55.551Z,0.32
2022-09-28T14:09:31.685Z,0.30
2022-09-28T14:11:59.486Z,0.40
2022-09-28T14:14:46.675Z,0.43
2022-09-28T14:17:19.191Z,0.32
2022-09-28T14:19:53.014Z,0.40
2022-09-28T14:22:54.669Z,0.30
2022-09-28T14:25:27.590Z,0.30
2022-09-28T14:28:01.465Z,0.30
2022-09-28T14:30:44.739Z,0.30
2022-09-28T14:33:20.521Z,0.32
2022-09-28T14:36:04.791Z,0.43
2022-09-28T14:39:08.270Z,0.30
2022-09-28T14:41:40.620Z,0.93
2022-09-28T14:44:09.421Z,0.30
2022-09-28T14:46:48.643Z,0.28
2022-09-28T14:49:19.227Z,0.50
2022-09-28T14:51:48.585Z,0.30
2022-09-28T14:54:39.409Z,0.30
2022-09-28T14:57:17.179Z,0.30
2022-09-28T14:59:46.205Z,0.30
2022-09-28T15:02:15.608Z,0.20
2022-09-28T15:05:00.050Z,0.30
2022-09-28T15:07:43.509Z,0.30
2022-09-28T15:10:33.271Z,0.40
2022-09-28T15:13:03.020Z,0.35
2022-09-28T15:15:43.588Z,0.40
2022-09-28T15:18:19.244Z,0.40
2022-09-28T15:20:48.656Z,0.40
2022-09-28T15:23:32.742Z,0.30
2022-09-28T15:26:01.543Z,0.32
2022-09-28T15:28:30.572Z,0.30
2022-09-28T15:31:02.020Z,0.30
2022-09-28T15:33:52.673Z,0.40
2022-09-28T15:36:43.233Z,0.40
2022-09-28T15:39:18.780Z,0.30
2022-09-28T15:41:47.661Z,0.33
2022-09-28T15:44:30.243Z,0.40
2022-09-28T15:47:27.320Z,0.40
2022-09-28T15:49:59.290Z,0.43
2022-09-28T15:52:35.364Z,0.40
2022-09-28T15:55:18.431Z,0.40
2022-09-28T15:57:44.995Z,0.60
2022-09-28T16:00:20.569Z,0.50
2022-09-28T16:03:08.984Z,0.60
2022-09-28T16:05:52.491Z,0.60
2022-09-28T16:08:36.964Z,0.50
2022-09-28T16:11:27.807Z,0.50
2022-09-28T16:14:06.319Z,0.50
2022-09-28T16:16:46.556Z,0.57
2022-09-28T16:19:37.752Z,0.80
2022-09-28T16:22:07.795Z,0.57
2022-09-28T16:24:39.132Z,0.60
2022-09-28T16:27:27.605Z,0.90
2022-09-28T16:30:16.525Z,1.40
2022-09-28T16:32:56.492Z,1.52
2022-09-28T16:35:31.844Z,1.67
2022-09-28T16:38:22.950Z,0.60
2022-09-28T16:40:53.980Z,0.57
2022-09-28T16:43:29.522Z,0.50
2022-09-28T16:46:00.997Z,0.50
2022-09-28T16:48:30.015Z,0.40
2022-09-28T16:50:57.664Z,0.60
2022-09-28T16:53:44.151Z,0.45
2022-09-28T16:56:12.451Z,1.05
2022-09-28T16:58:39.178Z,0.90
2022-09-28T17:01:09.831Z,0.87
2022-09-28T17:03:39.872Z,1.85
2022-09-28T17:06:06.773Z,2.20
2022-09-28T17:08:35.568Z,0.93
2022-09-28T17:11:24.460Z,1.17
2022-09-28T17:13:51.949Z,1.00
2022-09-28T17:16:28.147Z,1.30
2022-09-28T17:19:06.007Z,0.80
2022-09-28T17:21:32.510Z,0.82
2022-09-28T17:23:59.172Z,0.80
2022-09-28T17:26:30.752Z,2.23
2022-09-28T17:29:01.862Z,0.98
2022-09-28T17:31:31.035Z,1.10
2022-09-28T17:33:58.250Z,0.80
2022-09-28T17:36:27.098Z,0.50
2022-09-28T17:38:53.648Z,0.83
2022-09-28T17:41:21.171Z,0.90
2022-09-28T17:43:48.695Z,0.70
2022-09-28T17:46:25.082Z,0.80
2022-09-28T17:48:54.169Z,1.02
2022-09-28T17:51:25.674Z,0.97
2022-09-28T17:53:54.542Z,0.88
2022-09-28T17:56:23.297Z,0.82
2022-09-28T17:58:55.083Z,1.02
2022-09-28T18:01:21.656Z,0.70
2022-09-28T18:03:48.183Z,0.80
2022-09-28T18:06:20.240Z,0.73
2022-09-28T18:08:49.128Z,1.08
2022-09-28T18:11:17.384Z,1.20
2022-09-28T18:13:46.001Z,1.25
2022-09-28T18:16:14.157Z,1.70
2022-09-28T18:18:43.158Z,1.75
2022-09-28T18:21:09.794Z,1.75
2022-09-28T18:23:37.432Z,1.60
2022-09-28T18:26:05.258Z,1.60
2022-09-28T18:28:32.167Z,1.60
2022-09-28T18:30:59.012Z,1.75
2022-09-28T18:33:29.377Z,1.38
2022-09-28T18:35:58.257Z,1.70
2022-09-28T18:38:27.254Z,1.70
2022-09-28T18:40:54.902Z,1.50
2022-09-28T18:43:23.945Z,2.00
2022-09-28T18:45:50.659Z,1.80
2022-09-28T18:48:19.270Z,1.60
2022-09-28T18:50:45.825Z,1.50
2022-09-28T18:53:12.420Z,1.20
2022-09-28T18:55:45.151Z,1.35
2022-09-28T18:58:12.912Z,0.98
2022-09-28T19:00:41.917Z,1.63
2022-09-28T19:03:11.144Z,1.60
2022-09-28T19:05:44.151Z,1.07
2022-09-28T19:08:10.799Z,0.90
2022-09-28T19:10:39.834Z,0.90
2022-09-28T19:13:06.814Z,1.00
2022-09-28T19:15:34.592Z,1.40
2022-09-28T19:18:01.689Z,1.10
2022-09-28T19:20:30.535Z,1.10
2022-09-28T19:22:57.203Z,1.00
2022-09-28T19:25:29.084Z,0.93
2022-09-28T19:27:55.669Z,1.02
2022-09-28T19:30:22.573Z,1.03
2022-09-28T19:32:49.102Z,1.10
2022-09-28T19:35:15.685Z,0.88
2022-09-28T19:37:47.072Z,1.10
2022-09-28T19:40:13.661Z,1.23
2022-09-28T19:42:43.065Z,1.10
2022-09-28T19:45:10.846Z,1.00
2022-09-28T19:47:37.526Z,0.98
2022-09-28T19:50:05.513Z,0.80
2022-09-28T19:52:32.028Z,1.10
2022-09-28T19:54:59.967Z,0.90
2022-09-28T19:57:29.231Z,0.70
2022-09-28T20:00:01.660Z,0.77
2022-09-28T20:02:28.791Z,1.00
2022-09-28T20:04:55.451Z,0.80
2022-09-28T20:07:21.951Z,0.80
2022-09-28T20:09:48.540Z,0.80
2022-09-28T20:12:17.592Z,0.85
2022-09-28T20:14:48.753Z,0.80
2022-09-28T20:17:19.666Z,0.75
2022-09-28T20:19:46.197Z,0.70
2022-09-28T20:22:12.729Z,0.80
2022-09-28T20:24:39.269Z,0.82
2022-09-28T20:27:05.818Z,0.90
2022-09-28T20:29:33.365Z,0.98
2022-09-28T20:32:00.543Z,1.00
2022-09-28T20:34:27.625Z,1.20
2022-09-28T20:36:56.465Z,1.20
2022-09-28T20:39:25.275Z,1.00
2022-09-28T20:41:57.459Z,1.27
2022-09-28T20:44:26.294Z,1.30
2022-09-28T20:46:56.674Z,1.20
2022-09-28T20:49:27.539Z,1.20
2022-09-28T20:51:56.959Z,1.13
2022-09-28T20:54:26.215Z,1.38
2022-09-28T20:56:52.770Z,1.47
2022-09-28T20:59:23.085Z,1.73
2022-09-28T21:01:49.828Z,1.80
2022-09-28T21:04:16.531Z,1.70
2022-09-28T21:06:45.911Z,2.08
2022-09-28T21:09:12.499Z,2.50
2022-09-28T21:11:44.170Z,2.08
2022-09-28T21:14:13.285Z,2.03
2022-09-28T21:16:42.557Z,2.50
2022-09-28T21:19:09.096Z,2.30
2022-09-28T21:21:36.016Z,2.37
2022-09-28T21:24:03.098Z,2.60
2022-09-28T21:26:31.294Z,2.30
2022-09-28T21:29:06.144Z,2.30
2022-09-28T21:31:45.695Z,2.47
2022-09-28T21:34:14.984Z,1.50
2022-09-28T21:36:44.349Z,2.20
2022-09-28T21:39:11.020Z,2.67
2022-09-28T21:41:37.696Z,2.40
2022-09-28T21:44:04.277Z,2.83
2022-09-28T21:46:34.532Z,2.50
2022-09-28T21:49:02.706Z,2.30
2022-09-28T21:51:29.806Z,2.15
2022-09-28T21:53:59.395Z,2.10
2022-09-28T21:56:30.466Z,2.30
2022-09-28T21:58:59.209Z,2.20
2022-09-28T22:01:26.173Z,2.40
2022-09-28T22:03:56.352Z,3.05
2022-09-28T22:06:25.705Z,2.35
2022-09-28T22:08:54.996Z,2.28
2022-09-28T22:11:23.834Z,2.53
2022-09-28T22:13:51.680Z,2.40
2022-09-28T22:16:22.881Z,2.65
2022-09-28T22:18:53.015Z,2.30
2022-09-28T22:21:22.859Z,2.35
2022-09-28T22:23:52.067Z,2.40
2022-09-28T22:26:24.741Z,2.70
2022-09-28T22:28:53.249Z,2.22
2022-09-28T22:31:22.822Z,2.17
2022-09-28T22:33:52.139Z,2.35
2022-09-28T22:36:20.022Z,2.23
2022-09-28T22:38:47.457Z,2.30
2022-09-28T22:41:16.345Z,2.03
2022-09-28T22:43:43.831Z,2.30
2022-09-28T22:46:16.618Z,2.63
2022-09-28T22:48:54.870Z,1.97
2022-09-28T22:51:28.192Z,2.10
2022-09-28T22:53:54.987Z,2.53
2022-09-28T22:56:21.563Z,2.47
2022-09-28T22:58:48.132Z,2.58
2022-09-28T23:01:21.264Z,2.90
2022-09-28T23:03:51.349Z,2.40
2022-09-28T23:06:22.645Z,2.47
2022-09-28T23:08:52.636Z,2.42
2022-09-28T23:11:21.507Z,2.38
2022-09-28T23:13:55.457Z,2.83
2022-09-28T23:16:24.922Z,2.55
2022-09-28T23:18:52.335Z,2.33
2022-09-28T23:21:21.578Z,2.70
2022-09-28T23:23:59.039Z,2.30
2022-09-28T23:26:29.412Z,2.33
2022-09-28T23:28:59.018Z,2.35
2022-09-28T23:31:28.668Z,2.40
2022-09-28T23:34:05.787Z,2.17
2022-09-28T23:36:33.741Z,1.63
2022-09-28T23:39:00.568Z,1.30
2022-09-28T23:41:29.673Z,1.40
2022-09-28T23:43:58.723Z,1.33
2022-09-28T23:46:28.127Z,1.25
2022-09-28T23:48:57.455Z,1.40
2022-09-28T23:51:24.413Z,1.30
2022-09-28T23:53:50.947Z,1.25
2022-09-28T23:56:17.497Z,1.05
2022-09-28T23:58:46.222Z,1.23
